sensor_id;sensor_type;location;lat;lon;timestamp;pressure;altitude;pressure_sealevel;temperature;humidity
20630;BME280;17386;43.846;25.950;2022-11-14T00:00:29;102605.28;;;8.83;100.00
20630;BME280;17386;43.846;25.950;2022-11-14T00:02:58;102605.28;;;8.80;100.00
20630;BME280;17386;43.846;25.950;2022-11-14T00:05:24;102604.41;;;8.80;100.00
20630;BME280;17386;43.846;25.950;2022-11-14T00:07:49;102607.03;;;8.75;100.00
20630;BME280;17386;43.846;25.950;2022-11-14T00:10:15;102610.56;;;8.68;100.00
20630;BME280;17386;43.846;25.950;2022-11-14T00:12:41;102607.88;;;8.63;100.00
20630;BME280;17386;43.846;25.950;2022-11-14T00:15:07;102607.91;;;8.66;100.00
20630;BME280;17386;43.846;25.950;2022-11-14T00:17:33;102613.22;;;8.69;100.00
20630;BME280;17386;43.846;25.950;2022-11-14T00:19:58;102616.75;;;8.70;100.00
20630;BME280;17386;43.846;25.950;2022-11-14T00:22:23;102611.44;;;8.68;100.00
20630;BME280;17386;43.846;25.950;2022-11-14T00:24:49;102611.44;;;8.65;100.00
20630;BME280;17386;43.846;25.950;2022-11-14T00:27:14;102616.75;;;8.68;100.00
20630;BME280;17386;43.846;25.950;2022-11-14T00:29:40;102612.31;;;8.70;100.00
20630;BME280;17386;43.846;25.950;2022-11-14T00:32:06;102609.69;;;8.72;100.00
20630;BME280;17386;43.846;25.950;2022-11-14T00:34:32;102608.81;;;8.74;100.00
20630;BME280;17386;43.846;25.950;2022-11-14T00:36:57;102609.69;;;8.72;100.00
20630;BME280;17386;43.846;25.950;2022-11-14T00:39:23;102599.09;;;8.73;100.00
20630;BME280;17386;43.846;25.950;2022-11-14T00:41:48;102599.97;;;8.77;100.00
20630;BME280;17386;43.846;25.950;2022-11-14T00:44:13;102600.88;;;8.82;100.00
20630;BME280;17386;43.846;25.950;2022-11-14T00:46:39;102606.16;;;8.85;100.00
20630;BME280;17386;43.846;25.950;2022-11-14T00:49:04;102600.00;;;8.86;100.00
20630;BME280;17386;43.846;25.950;2022-11-14T00:51:29;102605.31;;;8.86;100.00
20630;BME280;17386;43.846;25.950;2022-11-14T00:53:55;102603.50;;;8.82;100.00
20630;BME280;17386;43.846;25.950;2022-11-14T00:56:20;102607.03;;;8.78;100.00
20630;BME280;17386;43.846;25.950;2022-11-14T00:58:46;102601.75;;;8.73;100.00
20630;BME280;17386;43.846;25.950;2022-11-14T01:01:11;102592.03;;;8.72;100.00
20630;BME280;17386;43.846;25.950;2022-11-14T01:03:36;102595.56;;;8.82;100.00
20630;BME280;17386;43.846;25.950;2022-11-14T01:06:04;102597.34;;;8.86;100.00
20630;BME280;17386;43.846;25.950;2022-11-14T01:08:31;102600.00;;;8.86;100.00
20630;BME280;17386;43.846;25.950;2022-11-14T01:10:56;102590.28;;;8.90;100.00
20630;BME280;17386;43.846;25.950;2022-11-14T01:13:22;102587.63;;;8.93;100.00
20630;BME280;17386;43.846;25.950;2022-11-14T01:15:48;102593.81;;;8.95;100.00
20630;BME280;17386;43.846;25.950;2022-11-14T01:18:16;102589.41;;;8.95;100.00
20630;BME280;17386;43.846;25.950;2022-11-14T01:20:43;102582.31;;;8.99;100.00
20630;BME280;17386;43.846;25.950;2022-11-14T01:23:09;102590.28;;;9.02;100.00
20630;BME280;17386;43.846;25.950;2022-11-14T01:25:36;102583.22;;;9.02;100.00
20630;BME280;17386;43.846;25.950;2022-11-14T01:28:10;102585.84;;;9.02;100.00
20630;BME280;17386;43.846;25.950;2022-11-14T01:30:35;102580.56;;;8.99;100.00
20630;BME280;17386;43.846;25.950;2022-11-14T01:33:01;102580.56;;;8.99;100.00
20630;BME280;17386;43.846;25.950;2022-11-14T01:35:27;102582.34;;;9.00;100.00
20630;BME280;17386;43.846;25.950;2022-11-14T01:37:53;102576.13;;;9.01;100.00
20630;BME280;17386;43.846;25.950;2022-11-14T01:40:18;102575.25;;;8.99;100.00
20630;BME280;17386;43.846;25.950;2022-11-14T01:48:29;102571.72;;;8.93;100.00
20630;BME280;17386;43.846;25.950;2022-11-14T01:51:02;102576.13;;;8.68;100.00
20630;BME280;17386;43.846;25.950;2022-11-14T01:53:29;102573.47;;;8.65;100.00
20630;BME280;17386;43.846;25.950;2022-11-14T01:55:58;102565.50;;;8.59;100.00
20630;BME280;17386;43.846;25.950;2022-11-14T01:58:27;102562.84;;;8.69;100.00
20630;BME280;17386;43.846;25.950;2022-11-14T02:00:55;102564.63;;;8.76;100.00
20630;BME280;17386;43.846;25.950;2022-11-14T02:03:21;102564.66;;;8.80;100.00
20630;BME280;17386;43.846;25.950;2022-11-14T02:05:47;102561.09;;;8.84;100.00
20630;BME280;17386;43.846;25.950;2022-11-14T02:08:14;102559.34;;;8.81;100.00
20630;BME280;17386;43.846;25.950;2022-11-14T02:10:40;102558.44;;;8.62;100.00
20630;BME280;17386;43.846;25.950;2022-11-14T02:13:06;102555.81;;;8.68;100.00
20630;BME280;17386;43.846;25.950;2022-11-14T02:15:32;102562.00;;;8.75;100.00
20630;BME280;17386;43.846;25.950;2022-11-14T02:18:00;102555.81;;;8.81;100.00
20630;BME280;17386;43.846;25.950;2022-11-14T02:20:27;102555.81;;;8.82;100.00
20630;BME280;17386;43.846;25.950;2022-11-14T02:22:53;102558.44;;;8.84;100.00
20630;BME280;17386;43.846;25.950;2022-11-14T02:25:18;102563.75;;;8.84;100.00
20630;BME280;17386;43.846;25.950;2022-11-14T02:27:44;102562.88;;;8.83;100.00
20630;BME280;17386;43.846;25.950;2022-11-14T02:30:13;102548.72;;;8.84;100.00
20630;BME280;17386;43.846;25.950;2022-11-14T02:32:39;102553.16;;;8.84;100.00
20630;BME280;17386;43.846;25.950;2022-11-14T02:35:05;102545.19;;;8.85;100.00
20630;BME280;17386;43.846;25.950;2022-11-14T02:37:31;102547.00;;;8.86;100.00
20630;BME280;17386;43.846;25.950;2022-11-14T02:39:56;102548.75;;;8.89;100.00
20630;BME280;17386;43.846;25.950;2022-11-14T02:42:22;102554.94;;;8.92;100.00
20630;BME280;17386;43.846;25.950;2022-11-14T02:44:47;102554.94;;;8.95;100.00
20630;BME280;17386;43.846;25.950;2022-11-14T02:47:12;102550.50;;;8.88;100.00
20630;BME280;17386;43.846;25.950;2022-11-14T02:49:38;102552.28;;;8.91;100.00
20630;BME280;17386;43.846;25.950;2022-11-14T02:52:03;102550.50;;;8.74;100.00
20630;BME280;17386;43.846;25.950;2022-11-14T02:54:29;102548.75;;;8.73;100.00
20630;BME280;17386;43.846;25.950;2022-11-14T02:56:54;102549.63;;;8.74;100.00
20630;BME280;17386;43.846;25.950;2022-11-14T02:59:19;102549.59;;;8.48;100.00
20630;BME280;17386;43.846;25.950;2022-11-14T03:01:45;102550.47;;;8.48;100.00
20630;BME280;17386;43.846;25.950;2022-11-14T03:04:10;102561.06;;;8.48;100.00
20630;BME280;17386;43.846;25.950;2022-11-14T03:06:35;102554.00;;;8.44;100.00
20630;BME280;17386;43.846;25.950;2022-11-14T03:09:01;102551.34;;;8.40;100.00
20630;BME280;17386;43.846;25.950;2022-11-14T03:11:26;102552.22;;;8.43;100.00
20630;BME280;17386;43.846;25.950;2022-11-14T03:13:52;102555.75;;;8.50;100.00
20630;BME280;17386;43.846;25.950;2022-11-14T03:16:18;102561.06;;;8.58;100.00
20630;BME280;17386;43.846;25.950;2022-11-14T03:18:44;102553.13;;;8.62;100.00
20630;BME280;17386;43.846;25.950;2022-11-14T03:21:12;102541.66;;;8.54;100.00
20630;BME280;17386;43.846;25.950;2022-11-14T03:23:38;102554.00;;;8.49;100.00
20630;BME280;17386;43.846;25.950;2022-11-14T03:26:06;102561.06;;;8.39;100.00
20630;BME280;17386;43.846;25.950;2022-11-14T03:28:32;102561.06;;;8.48;100.00
20630;BME280;17386;43.846;25.950;2022-11-14T03:30:57;102562.84;;;8.46;100.00
20630;BME280;17386;43.846;25.950;2022-11-14T03:33:22;102564.59;;;8.49;100.00
20630;BME280;17386;43.846;25.950;2022-11-14T03:35:49;102559.28;;;8.47;100.00
20630;BME280;17386;43.846;25.950;2022-11-14T03:38:15;102561.06;;;8.50;100.00
20630;BME280;17386;43.846;25.950;2022-11-14T03:40:41;102563.72;;;8.58;100.00
20630;BME280;17386;43.846;25.950;2022-11-14T03:43:06;102560.22;;;8.66;100.00
20630;BME280;17386;43.846;25.950;2022-11-14T03:45:32;102558.44;;;8.71;100.00
20630;BME280;17386;43.846;25.950;2022-11-14T03:47:57;102562.88;;;8.77;100.00
20630;BME280;17386;43.846;25.950;2022-11-14T03:50:23;102562.88;;;8.85;100.00
20630;BME280;17386;43.846;25.950;2022-11-14T03:52:49;102562.88;;;8.86;100.00
20630;BME280;17386;43.846;25.950;2022-11-14T03:55:15;102549.63;;;8.88;100.00
20630;BME280;17386;43.846;25.950;2022-11-14T03:57:41;102550.50;;;8.90;100.00
20630;BME280;17386;43.846;25.950;2022-11-14T04:00:08;102555.78;;;8.85;100.00
20630;BME280;17386;43.846;25.950;2022-11-14T04:02:33;102556.69;;;8.92;100.00
20630;BME280;17386;43.846;25.950;2022-11-14T04:04:59;102548.75;;;8.96;100.00
20630;BME280;17386;43.846;25.950;2022-11-14T04:07:24;102548.72;;;9.04;100.00
20630;BME280;17386;43.846;25.950;2022-11-14T04:09:50;102550.50;;;9.08;100.00
20630;BME280;17386;43.846;25.950;2022-11-14T04:12:16;102537.25;;;9.08;100.00
20630;BME280;17386;43.846;25.950;2022-11-14T04:14:42;102545.22;;;9.14;100.00
20630;BME280;17386;43.846;25.950;2022-11-14T04:17:07;102545.22;;;9.14;100.00
20630;BME280;17386;43.846;25.950;2022-11-14T04:19:33;102540.78;;;9.13;100.00
20630;BME280;17386;43.846;25.950;2022-11-14T04:21:58;102544.31;;;9.14;100.00
20630;BME280;17386;43.846;25.950;2022-11-14T04:24:23;102548.72;;;9.19;100.00
20630;BME280;17386;43.846;25.950;2022-11-14T04:26:49;102554.91;;;9.18;100.00
20630;BME280;17386;43.846;25.950;2022-11-14T04:29:14;102559.34;;;9.04;100.00
20630;BME280;17386;43.846;25.950;2022-11-14T04:31:39;102562.88;;;9.11;100.00
20630;BME280;17386;43.846;25.950;2022-11-14T04:34:05;102560.22;;;9.11;100.00
20630;BME280;17386;43.846;25.950;2022-11-14T04:36:30;102554.94;;;8.97;100.00
20630;BME280;17386;43.846;25.950;2022-11-14T04:38:56;102569.09;;;8.93;100.00
20630;BME280;17386;43.846;25.950;2022-11-14T04:41:21;102563.75;;;8.84;100.00
20630;BME280;17386;43.846;25.950;2022-11-14T04:43:47;102579.66;;;8.76;100.00
20630;BME280;17386;43.846;25.950;2022-11-14T04:46:12;102578.78;;;8.75;100.00
20630;BME280;17386;43.846;25.950;2022-11-14T04:48:38;102570.81;;;8.71;100.00
20630;BME280;17386;43.846;25.950;2022-11-14T04:51:03;102580.53;;;8.70;100.00
20630;BME280;17386;43.846;25.950;2022-11-14T04:53:29;102568.19;;;8.74;100.00
20630;BME280;17386;43.846;25.950;2022-11-14T04:55:54;102575.25;;;8.75;100.00
20630;BME280;17386;43.846;25.950;2022-11-14T04:58:19;102574.38;;;8.73;100.00
20630;BME280;17386;43.846;25.950;2022-11-14T05:00:45;102580.53;;;8.67;100.00
20630;BME280;17386;43.846;25.950;2022-11-14T05:03:10;102584.94;;;8.62;100.00
20630;BME280;17386;43.846;25.950;2022-11-14T05:05:35;102584.91;;;8.50;100.00
20630;BME280;17386;43.846;25.950;2022-11-14T05:08:01;102583.13;;;8.49;100.00
20630;BME280;17386;43.846;25.950;2022-11-14T05:10:26;102584.03;;;8.57;100.00
20630;BME280;17386;43.846;25.950;2022-11-14T05:12:53;102586.72;;;8.66;100.00
20630;BME280;17386;43.846;25.950;2022-11-14T05:15:18;102584.94;;;8.68;100.00
20630;BME280;17386;43.846;25.950;2022-11-14T05:17:44;102590.25;;;8.67;100.00
20630;BME280;17386;43.846;25.950;2022-11-14T05:20:09;102590.25;;;8.68;100.00
20630;BME280;17386;43.846;25.950;2022-11-14T05:22:35;102585.84;;;8.66;100.00
20630;BME280;17386;43.846;25.950;2022-11-14T05:25:00;102594.66;;;8.68;100.00
20630;BME280;17386;43.846;25.950;2022-11-14T05:27:26;102594.66;;;8.68;100.00
20630;BME280;17386;43.846;25.950;2022-11-14T05:29:52;102597.31;;;8.71;100.00
20630;BME280;17386;43.846;25.950;2022-11-14T05:32:19;102598.22;;;8.74;100.00
20630;BME280;17386;43.846;25.950;2022-11-14T05:34:45;102603.50;;;8.67;100.00
20630;BME280;17386;43.846;25.950;2022-11-14T05:37:10;102597.31;;;8.65;100.00
20630;BME280;17386;43.846;25.950;2022-11-14T05:39:35;102605.22;;;8.56;100.00
20630;BME280;17386;43.846;25.950;2022-11-14T05:42:01;102606.13;;;8.61;100.00
20630;BME280;17386;43.846;25.950;2022-11-14T05:44:26;102617.63;;;8.66;100.00
20630;BME280;17386;43.846;25.950;2022-11-14T05:46:52;102614.09;;;8.59;100.00
20630;BME280;17386;43.846;25.950;2022-11-14T05:49:17;102612.31;;;8.63;100.00
20630;BME280;17386;43.846;25.950;2022-11-14T05:51:42;102619.41;;;8.67;100.00
20630;BME280;17386;43.846;25.950;2022-11-14T05:54:08;102625.56;;;8.70;100.00
20630;BME280;17386;43.846;25.950;2022-11-14T05:56:33;102630.88;;;8.70;100.00
20630;BME280;17386;43.846;25.950;2022-11-14T05:58:58;102619.38;;;8.61;100.00
20630;BME280;17386;43.846;25.950;2022-11-14T06:01:24;102630.88;;;8.60;100.00
20630;BME280;17386;43.846;25.950;2022-11-14T06:03:49;102634.41;;;8.65;100.00
20630;BME280;17386;43.846;25.950;2022-11-14T06:06:17;102637.94;;;8.65;100.00
20630;BME280;17386;43.846;25.950;2022-11-14T06:08:44;102634.38;;;8.63;100.00
20630;BME280;17386;43.846;25.950;2022-11-14T06:11:12;102644.13;;;8.67;100.00
20630;BME280;17386;43.846;25.950;2022-11-14T06:13:41;102638.81;;;8.60;100.00
20630;BME280;17386;43.846;25.950;2022-11-14T06:16:12;102641.44;;;8.54;100.00
20630;BME280;17386;43.846;25.950;2022-11-14T06:18:38;102642.31;;;8.46;100.00
20630;BME280;17386;43.846;25.950;2022-11-14T06:21:07;102637.91;;;8.53;100.00
20630;BME280;17386;43.846;25.950;2022-11-14T06:23:34;102636.13;;;8.57;100.00
20630;BME280;17386;43.846;25.950;2022-11-14T06:26:01;102634.38;;;8.54;100.00
20630;BME280;17386;43.846;25.950;2022-11-14T06:28:27;102637.00;;;8.46;100.00
20630;BME280;17386;43.846;25.950;2022-11-14T06:31:00;102638.78;;;8.46;100.00
20630;BME280;17386;43.846;25.950;2022-11-14T06:33:26;102641.41;;;8.50;100.00
20630;BME280;17386;43.846;25.950;2022-11-14T06:35:59;102643.19;;;8.56;100.00
20630;BME280;17386;43.846;25.950;2022-11-14T06:38:25;102646.75;;;8.60;100.00
20630;BME280;17386;43.846;25.950;2022-11-14T06:40:51;102649.41;;;8.63;100.00
20630;BME280;17386;43.846;25.950;2022-11-14T06:43:17;102652.09;;;8.66;100.00
20630;BME280;17386;43.846;25.950;2022-11-14T06:45:42;102655.59;;;8.71;100.00
20630;BME280;17386;43.846;25.950;2022-11-14T06:48:07;102645.94;;;8.79;100.00
20630;BME280;17386;43.846;25.950;2022-11-14T06:50:33;102643.28;;;8.79;100.00
20630;BME280;17386;43.846;25.950;2022-11-14T06:52:58;102650.34;;;8.83;100.00
20630;BME280;17386;43.846;25.950;2022-11-14T06:55:24;102645.94;;;8.79;100.00
20630;BME280;17386;43.846;25.950;2022-11-14T06:57:53;102643.25;;;8.85;100.00
20630;BME280;17386;43.846;25.950;2022-11-14T07:00:20;102645.03;;;8.91;100.00
20630;BME280;17386;43.846;25.950;2022-11-14T07:02:46;102632.66;;;8.85;100.00
20630;BME280;17386;43.846;25.950;2022-11-14T07:05:12;102644.16;;;8.92;100.00
20630;BME280;17386;43.846;25.950;2022-11-14T07:07:37;102645.06;;;8.95;100.00
20630;BME280;17386;43.846;25.950;2022-11-14T07:10:03;102631.81;;;8.94;100.00
20630;BME280;17386;43.846;25.950;2022-11-14T07:12:28;102633.56;;;8.95;100.00
20630;BME280;17386;43.846;25.950;2022-11-14T07:14:54;102624.72;;;8.88;100.00
20630;BME280;17386;43.846;25.950;2022-11-14T07:17:19;102629.13;;;8.85;100.00
20630;BME280;17386;43.846;25.950;2022-11-14T07:19:44;102624.72;;;8.85;100.00
20630;BME280;17386;43.846;25.950;2022-11-14T07:22:10;102629.16;;;8.88;100.00
20630;BME280;17386;43.846;25.950;2022-11-14T07:24:35;102637.06;;;8.77;100.00
20630;BME280;17386;43.846;25.950;2022-11-14T07:27:01;102625.59;;;8.76;100.00
20630;BME280;17386;43.846;25.950;2022-11-14T07:29:26;102626.47;;;8.74;100.00
20630;BME280;17386;43.846;25.950;2022-11-14T07:31:52;102626.47;;;8.75;100.00
20630;BME280;17386;43.846;25.950;2022-11-14T07:34:17;102623.84;;;8.72;100.00
20630;BME280;17386;43.846;25.950;2022-11-14T07:36:43;102622.94;;;8.72;100.00
20630;BME280;17386;43.846;25.950;2022-11-14T07:39:09;102624.72;;;8.79;100.00
20630;BME280;17386;43.846;25.950;2022-11-14T07:41:34;102622.97;;;8.87;100.00
20630;BME280;17386;43.846;25.950;2022-11-14T07:44:00;102618.56;;;8.94;100.00
20630;BME280;17386;43.846;25.950;2022-11-14T07:46:25;102615.88;;;8.98;100.00
20630;BME280;17386;43.846;25.950;2022-11-14T07:48:51;102616.81;;;9.07;100.00
20630;BME280;17386;43.846;25.950;2022-11-14T07:51:17;102616.78;;;9.10;100.00
20630;BME280;17386;43.846;25.950;2022-11-14T07:53:43;102623.84;;;9.12;100.00
20630;BME280;17386;43.846;25.950;2022-11-14T07:56:09;102627.41;;;9.07;100.00
20630;BME280;17386;43.846;25.950;2022-11-14T07:58:39;102621.22;;;9.08;100.00
20630;BME280;17386;43.846;25.950;2022-11-14T08:01:06;102625.63;;;9.12;100.00
20630;BME280;17386;43.846;25.950;2022-11-14T08:03:32;102625.66;;;9.13;100.00
20630;BME280;17386;43.846;25.950;2022-11-14T08:06:06;102631.84;;;9.20;100.00
20630;BME280;17386;43.846;25.950;2022-11-14T08:08:32;102624.75;;;9.16;100.00
20630;BME280;17386;43.846;25.950;2022-11-14T08:10:59;102627.41;;;9.26;100.00
20630;BME280;17386;43.846;25.950;2022-11-14T08:13:25;102633.59;;;9.30;100.00
20630;BME280;17386;43.846;25.950;2022-11-14T08:15:50;102630.94;;;9.35;100.00
20630;BME280;17386;43.846;25.950;2022-11-14T08:18:16;102630.94;;;9.19;100.00
20630;BME280;17386;43.846;25.950;2022-11-14T08:20:42;102622.97;;;9.30;100.00
20630;BME280;17386;43.846;25.950;2022-11-14T08:23:08;102602.63;;;9.18;100.00
20630;BME280;17386;43.846;25.950;2022-11-14T08:25:34;102636.22;;;9.50;100.00
20630;BME280;17386;43.846;25.950;2022-11-14T08:27:59;102637.13;;;9.43;100.00
20630;BME280;17386;43.846;25.950;2022-11-14T08:30:25;102632.69;;;9.58;100.00
20630;BME280;17386;43.846;25.950;2022-11-14T08:32:50;102627.38;;;9.55;100.00
20630;BME280;17386;43.846;25.950;2022-11-14T08:35:16;102631.78;;;9.59;100.00
20630;BME280;17386;43.846;25.950;2022-11-14T08:37:41;102631.78;;;9.66;100.00
20630;BME280;17386;43.846;25.950;2022-11-14T08:40:07;102628.25;;;9.76;100.00
20630;BME280;17386;43.846;25.950;2022-11-14T08:42:32;102624.66;;;9.86;100.00
20630;BME280;17386;43.846;25.950;2022-11-14T08:44:58;102619.31;;;9.98;100.00
20630;BME280;17386;43.846;25.950;2022-11-14T08:47:23;102620.22;;;9.96;100.00
20630;BME280;17386;43.846;25.950;2022-11-14T08:49:48;102622.81;;;10.02;100.00
20630;BME280;17386;43.846;25.950;2022-11-14T08:52:14;102606.03;;;10.03;100.00
20630;BME280;17386;43.846;25.950;2022-11-14T08:54:39;102621.94;;;10.07;100.00
20630;BME280;17386;43.846;25.950;2022-11-14T08:57:05;102607.78;;;10.07;100.00
20630;BME280;17386;43.846;25.950;2022-11-14T08:59:31;102610.47;;;10.02;100.00
20630;BME280;17386;43.846;25.950;2022-11-14T09:01:57;102602.47;;;10.05;100.00
20630;BME280;17386;43.846;25.950;2022-11-14T09:04:22;102604.19;;;10.19;100.00
20630;BME280;17386;43.846;25.950;2022-11-14T09:06:47;102605.94;;;10.30;100.00
20630;BME280;17386;43.846;25.950;2022-11-14T09:09:13;102605.06;;;10.30;100.00
20630;BME280;17386;43.846;25.950;2022-11-14T09:11:39;102598.88;;;10.26;100.00
20630;BME280;17386;43.846;25.950;2022-11-14T09:14:04;102595.34;;;10.26;100.00
20630;BME280;17386;43.846;25.950;2022-11-14T09:16:30;102579.38;;;10.27;100.00
20630;BME280;17386;43.846;25.950;2022-11-14T09:18:55;102592.59;;;10.44;100.00
20630;BME280;17386;43.846;25.950;2022-11-14T09:21:21;102591.69;;;10.45;100.00
20630;BME280;17386;43.846;25.950;2022-11-14T09:23:46;102596.03;;;10.60;100.00
20630;BME280;17386;43.846;25.950;2022-11-14T09:26:12;102598.72;;;10.57;100.00
20630;BME280;17386;43.846;25.950;2022-11-14T09:28:38;102590.69;;;10.61;100.00
20630;BME280;17386;43.846;25.950;2022-11-14T09:31:05;102581.78;;;10.68;100.00
20630;BME280;17386;43.846;25.950;2022-11-14T09:33:32;102576.50;;;10.65;100.00
20630;BME280;17386;43.846;25.950;2022-11-14T09:35:59;102576.47;;;10.72;100.00
20630;BME280;17386;43.846;25.950;2022-11-14T09:38:25;102568.44;;;10.79;100.00
20630;BME280;17386;43.846;25.950;2022-11-14T09:41:00;102567.47;;;10.89;100.00
20630;BME280;17386;43.846;25.950;2022-11-14T09:49:02;102559.38;;;11.02;100.00
20630;BME280;17386;43.846;25.950;2022-11-14T09:51:33;102559.38;;;11.03;100.00
20630;BME280;17386;43.846;25.950;2022-11-14T09:54:23;102553.09;;;11.13;100.00
20630;BME280;17386;43.846;25.950;2022-11-14T09:56:50;102549.53;;;11.11;100.00
20630;BME280;17386;43.846;25.950;2022-11-14T09:59:16;102551.19;;;11.28;100.00
20630;BME280;17386;43.846;25.950;2022-11-14T10:02:15;102549.22;;;11.45;100.00
20630;BME280;17386;43.846;25.950;2022-11-14T10:10:52;102535.75;;;11.60;100.00
20630;BME280;17386;43.846;25.950;2022-11-14T10:13:31;102543.75;;;11.60;100.00
20630;BME280;17386;43.846;25.950;2022-11-14T10:16:23;102539.28;;;11.59;100.00
20630;BME280;17386;43.846;25.950;2022-11-14T10:21:49;102527.78;;;11.57;100.00
20630;BME280;17386;43.846;25.950;2022-11-14T10:24:30;102528.59;;;11.67;100.00
20630;BME280;17386;43.846;25.950;2022-11-14T10:27:04;102528.75;;;11.50;100.00
20630;BME280;17386;43.846;25.950;2022-11-14T10:35:52;102510.09;;;11.51;100.00
20630;BME280;17386;43.846;25.950;2022-11-14T10:38:35;102518.88;;;11.61;100.00
20630;BME280;17386;43.846;25.950;2022-11-14T10:41:05;102513.50;;;11.64;100.00
20630;BME280;17386;43.846;25.950;2022-11-14T10:43:36;102523.38;;;11.56;100.00
20630;BME280;17386;43.846;25.950;2022-11-14T10:48:39;102509.03;;;11.68;100.00
20630;BME280;17386;43.846;25.950;2022-11-14T10:51:36;102506.56;;;11.51;100.00
20630;BME280;17386;43.846;25.950;2022-11-14T10:56:45;102500.41;;;11.47;100.00
20630;BME280;17386;43.846;25.950;2022-11-14T10:59:11;102503.84;;;11.57;100.00
20630;BME280;17386;43.846;25.950;2022-11-14T11:01:53;102500.09;;;11.72;100.00
20630;BME280;17386;43.846;25.950;2022-11-14T11:10:02;102497.13;;;12.01;100.00
20630;BME280;17386;43.846;25.950;2022-11-14T11:12:51;102502.34;;;12.05;100.00
20630;BME280;17386;43.846;25.950;2022-11-14T11:18:03;102493.41;;;12.11;100.00
20630;BME280;17386;43.846;25.950;2022-11-14T11:20:32;102491.59;;;12.13;100.00
20630;BME280;17386;43.846;25.950;2022-11-14T11:23:12;102495.88;;;12.25;100.00
20630;BME280;17386;43.846;25.950;2022-11-14T11:25:41;102494.13;;;12.21;100.00
20630;BME280;17386;43.846;25.950;2022-11-14T11:28:11;102483.47;;;12.21;100.00
20630;BME280;17386;43.846;25.950;2022-11-14T11:30:37;102478.06;;;12.27;100.00
20630;BME280;17386;43.846;25.950;2022-11-14T11:33:27;102481.59;;;12.27;100.00
20630;BME280;17386;43.846;25.950;2022-11-14T11:36:02;102480.59;;;12.35;100.00
20630;BME280;17386;43.846;25.950;2022-11-14T11:38:31;102486.81;;;12.37;100.00
20630;BME280;17386;43.846;25.950;2022-11-14T11:41:06;102477.00;;;12.39;100.00
20630;BME280;17386;43.846;25.950;2022-11-14T11:46:08;102476.97;;;12.40;100.00
20630;BME280;17386;43.846;25.950;2022-11-14T11:48:39;102473.34;;;12.46;100.00
20630;BME280;17386;43.846;25.950;2022-11-14T11:51:12;102477.06;;;12.34;100.00
20630;BME280;17386;43.846;25.950;2022-11-14T11:54:03;102476.44;;;12.18;100.00
20630;BME280;17386;43.846;25.950;2022-11-14T11:56:31;102466.75;;;12.11;100.00
20630;BME280;17386;43.846;25.950;2022-11-14T12:02:02;102454.09;;;12.27;100.00
20630;BME280;17386;43.846;25.950;2022-11-14T12:04:29;102460.44;;;12.18;100.00
20630;BME280;17386;43.846;25.950;2022-11-14T12:07:03;102458.72;;;12.14;100.00
20630;BME280;17386;43.846;25.950;2022-11-14T12:09:39;102458.72;;;12.16;100.00
20630;BME280;17386;43.846;25.950;2022-11-14T12:12:11;102460.59;;;12.06;100.00
20630;BME280;17386;43.846;25.950;2022-11-14T12:17:39;102458.31;;;11.82;100.00
20630;BME280;17386;43.846;25.950;2022-11-14T12:30:58;102457.47;;;11.75;100.00
20630;BME280;17386;43.846;25.950;2022-11-14T12:33:36;102447.66;;;11.78;100.00
20630;BME280;17386;43.846;25.950;2022-11-14T12:36:07;102445.00;;;11.82;100.00
20630;BME280;17386;43.846;25.950;2022-11-14T12:38:48;102444.13;;;11.81;100.00
20630;BME280;17386;43.846;25.950;2022-11-14T12:41:26;102440.53;;;11.82;100.00
20630;BME280;17386;43.846;25.950;2022-11-14T12:44:15;102439.63;;;11.85;100.00
20630;BME280;17386;43.846;25.950;2022-11-14T12:50:25;102442.31;;;11.83;100.00
20630;BME280;17386;43.846;25.950;2022-11-14T12:52:46;102447.63;;;11.83;100.00
20630;BME280;17386;43.846;25.950;2022-11-14T13:01:04;102448.59;;;11.76;100.00
20630;BME280;17386;43.846;25.950;2022-11-14T13:06:52;102451.28;;;11.71;100.00
20630;BME280;17386;43.846;25.950;2022-11-14T13:09:32;102452.16;;;11.75;100.00
20630;BME280;17386;43.846;25.950;2022-11-14T13:11:58;102443.41;;;11.64;100.00
20630;BME280;17386;43.846;25.950;2022-11-14T13:15:21;102438.06;;;11.65;100.00
20630;BME280;17386;43.846;25.950;2022-11-14T13:18:27;102439.88;;;11.63;100.00
20630;BME280;17386;43.846;25.950;2022-11-14T13:21:23;102445.19;;;11.63;100.00
20630;BME280;17386;43.846;25.950;2022-11-14T13:24:08;102443.44;;;11.62;100.00
20630;BME280;17386;43.846;25.950;2022-11-14T13:26:36;102433.84;;;11.49;100.00
20630;BME280;17386;43.846;25.950;2022-11-14T13:29:01;102433.69;;;11.60;100.00
20630;BME280;17386;43.846;25.950;2022-11-14T13:31:46;102436.53;;;11.46;100.00
20630;BME280;17386;43.846;25.950;2022-11-14T13:34:32;102437.31;;;11.56;100.00
20630;BME280;17386;43.846;25.950;2022-11-14T13:42:57;102435.66;;;11.44;100.00
20630;BME280;17386;43.846;25.950;2022-11-14T13:50:56;102425.13;;;11.36;100.00
20630;BME280;17386;43.846;25.950;2022-11-14T13:53:26;102435.66;;;11.47;100.00
20630;BME280;17386;43.846;25.950;2022-11-14T14:06:36;102420.56;;;11.47;100.00
20630;BME280;17386;43.846;25.950;2022-11-14T14:09:19;102418.03;;;11.35;100.00
20630;BME280;17386;43.846;25.950;2022-11-14T14:14:48;102417.34;;;11.18;100.00
20630;BME280;17386;43.846;25.950;2022-11-14T14:17:25;102413.78;;;11.22;100.00
20630;BME280;17386;43.846;25.950;2022-11-14T14:22:48;102421.78;;;11.20;100.00